Time;durP1;ratioP1;P1;durP2;ratioP2;P2;SDS_P1;SDS_P2;PMS_P1;PMS_P2;Temp;Humidity;BMP_temperature;BMP_pressure;BME280_temperature;BME280_humidity;BME280_pressure;Samples;Min_cycle;Max_cycle;Signal;HPM_P1;HPM_P2
2022/04/15 00:00:16;;;;;;;21.15;9.73;;;;;;;9.01;100.00;102423.19;5049478;28;20127;-54
2022/04/15 00:02:44;;;;;;;16.25;9.90;;;;;;;8.99;100.00;102438.13;5048357;28;20526;-58
2022/04/15 00:07:54;;;;;;;20.77;10.18;;;;;;;9.00;100.00;102429.31;5040786;28;20057;-58
2022/04/15 00:10:23;;;;;;;18.10;9.60;;;;;;;9.01;100.00;102433.69;5049753;28;20052;-58
2022/04/15 00:12:51;;;;;;;16.88;9.40;;;;;;;9.03;100.00;102431.88;5049385;28;20075;-58
2022/04/15 00:15:20;;;;;;;19.60;10.30;;;;;;;8.98;100.00;102433.78;5049460;28;20128;-58
2022/04/15 00:17:48;;;;;;;16.55;10.13;;;;;;;8.96;100.00;102433.84;5047875;28;20444;-58
2022/04/15 00:20:16;;;;;;;17.60;10.13;;;;;;;8.87;100.00;102434.97;5049835;28;20053;-58
2022/04/15 00:22:44;;;;;;;16.02;10.23;;;;;;;8.82;100.00;102430.78;5049496;28;20053;-58
2022/04/15 00:25:12;;;;;;;20.13;10.40;;;;;;;8.77;100.00;102430.97;5049936;28;20044;-59
2022/04/15 00:27:41;;;;;;;15.93;10.45;;;;;;;8.81;100.00;102437.81;5049306;28;20045;-58
2022/04/15 00:30:11;;;;;;;21.90;10.40;;;;;;;8.72;100.00;102438.97;5049289;28;20072;-58
2022/04/15 00:32:41;;;;;;;19.10;10.70;;;;;;;8.69;100.00;102441.69;5048260;28;20079;-58
2022/04/15 00:35:10;;;;;;;19.13;11.57;;;;;;;8.78;100.00;102440.53;5049234;28;20476;-58
2022/04/15 00:37:38;;;;;;;19.77;10.98;;;;;;;8.76;100.00;102444.97;5049416;28;20048;-58
2022/04/15 00:40:09;;;;;;;15.50;10.13;;;;;;;8.81;100.00;102443.06;5049217;28;20064;-58
2022/04/15 00:42:38;;;;;;;17.45;11.13;;;;;;;8.69;100.00;102453.97;5049128;28;20095;-59
2022/04/15 00:45:09;;;;;;;22.27;11.60;;;;;;;8.67;100.00;102450.50;5049260;28;20052;-58
2022/04/15 00:47:48;;;;;;;18.02;10.80;;;;;;;8.70;100.00;102453.03;5048249;28;20106;-58
2022/04/15 00:50:17;;;;;;;19.73;10.85;;;;;;;8.71;100.00;102454.75;5049571;28;20048;-58
2022/04/15 00:52:48;;;;;;;16.30;10.02;;;;;;;8.72;100.00;102452.06;5049270;28;20124;-57
2022/04/15 00:55:17;;;;;;;19.13;9.55;;;;;;;8.73;100.00;102451.19;5049545;28;20041;-58
2022/04/15 00:57:49;;;;;;;16.45;9.93;;;;;;;8.69;100.00;102451.34;5048896;28;20515;-58
2022/04/15 01:00:19;;;;;;;19.80;10.87;;;;;;;8.66;100.00;102454.03;5049058;28;20063;-58
2022/04/15 01:02:49;;;;;;;19.45;10.85;;;;;;;8.60;100.00;102444.59;5045584;28;20099;-58
2022/04/15 01:05:18;;;;;;;17.23;10.60;;;;;;;8.55;100.00;102446.50;5047885;28;20060;-58
2022/04/15 01:07:48;;;;;;;17.77;11.15;;;;;;;8.48;100.00;102455.47;5048310;28;20045;-57
2022/04/15 01:10:18;;;;;;;18.80;10.50;;;;;;;8.57;100.00;102450.78;5047863;28;20057;-54
2022/04/15 01:12:48;;;;;;;16.70;9.93;;;;;;;8.51;100.00;102453.63;5048101;28;20036;-51
2022/04/15 01:15:37;;;;;;;15.45;10.65;;;;;;;8.53;100.00;102454.41;5047504;28;20041;-53
2022/04/15 01:18:07;;;;;;;16.90;9.63;;;;;;;8.43;100.00;102453.81;5046451;28;20462;-54
2022/04/15 01:20:36;;;;;;;18.83;11.25;;;;;;;8.36;100.00;102456.69;5048805;28;20444;-53
2022/04/15 01:23:07;;;;;;;17.52;11.15;;;;;;;8.26;100.00;102461.31;5048115;28;20040;-52
2022/04/15 01:25:36;;;;;;;18.95;10.63;;;;;;;8.24;100.00;102460.53;5048859;28;20076;-52
2022/04/15 01:28:05;;;;;;;18.63;11.48;;;;;;;8.16;100.00;102460.72;5048224;28;20036;-51
2022/04/15 01:30:33;;;;;;;21.15;12.23;;;;;;;8.17;100.00;102464.22;5048708;28;20055;-51
2022/04/15 01:33:03;;;;;;;18.83;11.90;;;;;;;8.11;100.00;102468.75;5045636;28;20053;-54
2022/04/15 01:35:34;;;;;;;19.95;11.32;;;;;;;8.09;100.00;102464.44;5048859;28;20049;-53
2022/04/15 01:38:04;;;;;;;18.67;11.30;;;;;;;8.03;100.00;102465.50;5048106;28;20063;-57
2022/04/15 01:40:34;;;;;;;21.73;11.95;;;;;;;8.01;100.00;102466.44;5048469;28;20408;-57
2022/04/15 01:43:03;;;;;;;18.08;11.20;;;;;;;8.01;100.00;102466.44;5048129;28;20053;-57
2022/04/15 01:45:31;;;;;;;20.95;11.95;;;;;;;7.86;100.00;102465.94;5048100;28;20499;-58
2022/04/15 01:47:59;;;;;;;22.48;13.02;;;;;;;7.70;100.00;102472.50;5044275;28;20134;-57
2022/04/15 01:50:29;;;;;;;18.73;13.20;;;;;;;7.67;100.00;102472.59;5048037;28;20060;-58
2022/04/15 01:52:58;;;;;;;18.85;13.38;;;;;;;7.58;100.00;102478.94;5047579;28;20155;-58
2022/04/15 01:55:27;;;;;;;22.70;13.45;;;;;;;7.58;100.00;102482.41;5047996;28;20053;-57
2022/04/15 01:57:57;;;;;;;22.70;12.77;;;;;;;7.56;100.00;102481.59;5047481;28;20480;-58
2022/04/15 02:00:25;;;;;;;19.25;11.80;;;;;;;7.63;100.00;102478.81;5048285;28;20110;-58
2022/04/15 02:02:53;;;;;;;20.50;12.65;;;;;;;7.59;100.00;102478.91;5046285;28;20549;-58
2022/04/15 02:05:21;;;;;;;17.77;11.63;;;;;;;7.61;100.00;102484.09;5048412;28;20569;-58
2022/04/15 02:07:49;;;;;;;20.85;11.68;;;;;;;7.53;100.00;102480.81;5047386;28;20056;-57
2022/04/15 02:10:17;;;;;;;18.63;11.85;;;;;;;7.43;100.00;102483.69;5048673;28;20495;-58
2022/04/15 02:12:45;;;;;;;17.13;11.27;;;;;;;7.48;100.00;102486.16;5048010;28;20040;-58
2022/04/15 02:15:14;;;;;;;17.08;11.38;;;;;;;7.44;100.00;102485.41;5047777;28;20063;-57
2022/04/15 02:17:42;;;;;;;17.45;10.95;;;;;;;7.36;100.00;102486.47;5046306;28;20443;-58
2022/04/15 02:20:11;;;;;;;20.05;12.40;;;;;;;7.39;100.00;102494.25;5048500;28;20049;-58
2022/04/15 02:22:39;;;;;;;18.50;12.98;;;;;;;7.39;100.00;102491.63;5051446;28;20037;-58
2022/04/15 02:25:08;;;;;;;18.35;11.80;;;;;;;7.30;100.00;102491.88;5051163;28;20447;-58
2022/04/15 02:27:36;;;;;;;18.38;11.80;;;;;;;7.24;100.00;102499.00;5083861;28;20094;-58
2022/04/15 02:30:05;;;;;;;20.10;13.23;;;;;;;7.19;100.00;102506.09;5051571;28;20052;-58
2022/04/15 02:32:35;;;;;;;18.98;12.30;;;;;;;7.24;100.00;102506.84;5051340;28;20037;-58
2022/04/15 02:35:03;;;;;;;20.27;12.55;;;;;;;7.14;100.00;102515.78;5051021;28;20045;-58
2022/04/15 02:37:32;;;;;;;22.63;12.73;;;;;;;7.15;100.00;102511.44;5051430;28;20049;-57
2022/04/15 02:40:00;;;;;;;21.13;13.23;;;;;;;7.20;100.00;102514.78;5051472;28;20052;-58
2022/04/15 02:42:28;;;;;;;22.35;13.73;;;;;;;7.16;100.00;102514.03;5052004;28;20683;-58
2022/04/15 02:44:56;;;;;;;23.33;12.63;;;;;;;7.21;100.00;102522.63;5050992;28;20945;-58
2022/04/15 02:47:24;;;;;;;21.02;12.93;;;;;;;7.23;100.00;102518.19;5050114;28;20060;-58
2022/04/15 02:49:54;;;;;;;21.63;12.35;;;;;;;7.13;100.00;102524.56;5049355;28;20102;-58
2022/04/15 02:52:22;;;;;;;20.23;12.35;;;;;;;7.08;100.00;102527.28;5051060;28;20055;-58
2022/04/15 02:54:50;;;;;;;21.23;11.85;;;;;;;7.09;100.00;102529.00;5050581;28;20137;-58
2022/04/15 02:57:18;;;;;;;18.77;11.23;;;;;;;7.18;100.00;102529.69;5051548;28;20044;-58
2022/04/15 02:59:47;;;;;;;20.98;12.00;;;;;;;7.25;100.00;102531.25;5051314;28;20072;-55
2022/04/15 03:02:15;;;;;;;19.38;11.98;;;;;;;7.27;100.00;102526.84;5051339;28;20365;-51
2022/04/15 03:04:44;;;;;;;21.05;12.80;;;;;;;7.27;100.00;102530.31;5049250;28;20045;-58
2022/04/15 03:07:13;;;;;;;19.08;11.18;;;;;;;7.28;100.00;102532.03;5051222;28;20049;-58
2022/04/15 03:09:41;;;;;;;21.55;11.00;;;;;;;7.30;100.00;102531.16;5050613;28;20053;-54
2022/04/15 03:12:10;;;;;;;20.63;12.07;;;;;;;7.24;100.00;102526.91;5050990;28;20045;-53
2022/04/15 03:14:39;;;;;;;20.30;11.90;;;;;;;7.25;100.00;102529.50;5050792;28;20048;-54
2022/04/15 03:17:07;;;;;;;19.25;11.05;;;;;;;7.19;100.00;102528.78;5050723;28;20106;-53
2022/04/15 03:19:35;;;;;;;20.55;11.90;;;;;;;7.18;100.00;102529.69;5049226;28;20064;-54
2022/04/15 03:22:04;;;;;;;22.30;12.38;;;;;;;7.15;100.00;102533.22;5051144;28;20045;-54
2022/04/15 03:24:34;;;;;;;19.58;11.15;;;;;;;7.27;100.00;102537.31;5050934;28;20049;-51
2022/04/15 03:27:02;;;;;;;20.83;11.73;;;;;;;7.16;100.00;102540.19;5049404;28;20049;-53
2022/04/15 03:29:30;;;;;;;21.75;11.40;;;;;;;7.24;100.00;102548.72;5050497;28;20056;-55
2022/04/15 03:31:58;;;;;;;20.65;12.13;;;;;;;7.20;100.00;102540.94;5049153;28;20479;-57
2022/04/15 03:34:26;;;;;;;20.95;12.05;;;;;;;7.19;100.00;102539.25;5048877;28;20132;-57
2022/04/15 03:36:54;;;;;;;22.00;12.00;;;;;;;7.23;100.00;102544.38;5050152;28;20044;-58
2022/04/15 03:39:22;;;;;;;21.65;12.00;;;;;;;7.25;100.00;102544.31;5050093;28;20504;-58
2022/04/15 03:41:52;;;;;;;19.65;11.75;;;;;;;7.40;100.00;102545.72;5050236;28;20475;-52
2022/04/15 03:44:20;;;;;;;22.52;12.77;;;;;;;7.34;100.00;102544.09;5049971;28;20060;-53
2022/04/15 03:46:48;;;;;;;24.33;12.40;;;;;;;7.36;100.00;102549.31;5049121;28;20079;-53
2022/04/15 03:49:16;;;;;;;20.45;12.25;;;;;;;7.37;100.00;102546.66;5048186;28;20414;-51
2022/04/15 03:51:44;;;;;;;22.13;12.57;;;;;;;7.47;100.00;102551.66;5050275;28;20041;-50
2022/04/15 03:54:12;;;;;;;22.95;13.05;;;;;;;7.47;100.00;102551.66;5050343;28;20388;-54
2022/04/15 03:56:40;;;;;;;25.77;12.95;;;;;;;7.41;100.00;102550.91;5050199;28;20795;-53
2022/04/15 03:59:10;;;;;;;19.90;12.45;;;;;;;7.56;100.00;102549.66;5048262;28;20061;-53
2022/04/15 04:01:38;;;;;;;22.70;12.50;;;;;;;7.71;100.00;102547.56;5049948;28;20732;-58
2022/04/15 04:04:06;;;;;;;23.95;12.65;;;;;;;7.69;100.00;102547.59;5048190;28;20067;-58
2022/04/15 04:06:34;;;;;;;21.52;12.13;;;;;;;7.56;100.00;102549.66;5050035;28;20045;-55
2022/04/15 04:09:02;;;;;;;25.88;13.18;;;;;;;7.48;100.00;102554.25;5049600;28;20414;-53
2022/04/15 04:11:30;;;;;;;22.77;11.52;;;;;;;7.48;100.00;102554.25;5050230;28;20049;-53
2022/04/15 04:13:58;;;;;;;17.77;10.20;;;;;;;7.44;100.00;102555.22;5049188;28;20129;-54
2022/04/15 04:16:28;;;;;;;15.80;9.60;;;;;;;7.44;100.00;102563.06;5050108;28;20053;-53
2022/04/15 04:18:56;;;;;;;15.82;8.32;;;;;;;7.39;100.00;102557.94;5047711;28;20056;-54
2022/04/15 04:21:24;;;;;;;16.17;8.57;;;;;;;7.32;100.00;102566.84;5049855;28;20041;-54
2022/04/15 04:23:52;;;;;;;15.23;8.43;;;;;;;7.32;100.00;102561.63;5049212;28;20083;-54
2022/04/15 04:26:21;;;;;;;14.13;8.93;;;;;;;7.39;100.00;102564.94;5049386;28;20049;-54
2022/04/15 04:28:49;;;;;;;14.77;8.65;;;;;;;7.43;100.00;102561.34;5048809;28;20045;-54
2022/04/15 04:31:20;;;;;;;15.18;8.10;;;;;;;7.41;100.00;102564.00;5049387;28;20053;-58
2022/04/15 04:33:50;;;;;;;18.10;8.75;;;;;;;7.54;100.00;102566.31;5047613;28;20060;-58
2022/04/15 04:36:18;;;;;;;15.13;7.75;;;;;;;7.51;100.00;102569.88;5049854;28;20041;-58
2022/04/15 04:38:46;;;;;;;16.15;8.82;;;;;;;7.52;100.00;102568.97;5049777;28;20056;-54
2022/04/15 04:41:14;;;;;;;16.65;8.57;;;;;;;7.59;100.00;102580.16;5049604;28;20094;-58
2022/04/15 04:43:42;;;;;;;17.17;8.55;;;;;;;7.52;100.00;102575.97;5048976;28;20045;-58
2022/04/15 04:46:11;;;;;;;13.98;7.93;;;;;;;7.42;100.00;102578.81;5048930;28;20045;-52
2022/04/15 04:48:39;;;;;;;15.18;7.50;;;;;;;7.49;100.00;102574.28;5047042;28;20507;-52
2022/04/15 04:51:10;;;;;;;14.57;8.02;;;;;;;7.62;100.00;102580.06;5047763;28;20438;-54
2022/04/15 04:53:38;;;;;;;15.60;7.65;;;;;;;7.65;100.00;102587.88;5048651;28;20033;-54
2022/04/15 04:56:06;;;;;;;14.30;7.70;;;;;;;7.57;100.00;102597.69;5048516;28;20777;-54
2022/04/15 04:58:34;;;;;;;16.17;8.18;;;;;;;7.55;100.00;102584.63;5048953;28;20052;-52
2022/04/15 05:01:02;;;;;;;14.68;7.72;;;;;;;7.49;100.00;102597.00;5048941;28;20530;-53
2022/04/15 05:03:30;;;;;;;13.77;8.35;;;;;;;7.45;100.00;102596.22;5047531;28;20106;-52
2022/04/15 05:05:59;;;;;;;16.60;8.10;;;;;;;7.47;100.00;102601.41;5048561;28;20060;-55
2022/04/15 05:08:28;;;;;;;19.60;9.25;;;;;;;7.51;100.00;102600.44;5048762;28;20080;-53
2022/04/15 05:10:56;;;;;;;12.77;7.65;;;;;;;7.53;100.00;102611.75;5048691;28;20053;-53
2022/04/15 05:13:24;;;;;;;16.50;7.97;;;;;;;7.53;100.00;102616.97;5048646;28;20136;-53
2022/04/15 05:15:52;;;;;;;15.15;8.02;;;;;;;7.55;100.00;102616.03;5047939;28;20095;-54
2022/04/15 05:18:20;;;;;;;15.05;8.43;;;;;;;7.55;100.00;102625.63;5047186;28;20080;-52
2022/04/15 05:20:49;;;;;;;15.50;8.18;;;;;;;7.45;100.00;102625.84;5048468;28;20389;-54
2022/04/15 05:23:17;;;;;;;13.23;9.43;;;;;;;7.41;100.00;102628.59;5048526;28;20495;-54
2022/04/15 05:25:47;;;;;;;15.00;8.35;;;;;;;7.46;100.00;102626.72;5048693;28;20440;-54
2022/04/15 05:28:15;;;;;;;15.73;8.95;;;;;;;7.45;100.00;102635.47;5048415;28;20052;-51
2022/04/15 05:30:43;;;;;;;16.00;9.35;;;;;;;7.42;100.00;102632.94;5048368;28;20100;-54
2022/04/15 05:33:11;;;;;;;13.43;8.43;;;;;;;7.38;100.00;102641.75;5045701;28;20410;-53
2022/04/15 05:35:39;;;;;;;17.65;9.27;;;;;;;7.31;100.00;102638.41;5048394;28;20053;-53
2022/04/15 05:38:08;;;;;;;16.35;8.63;;;;;;;7.24;100.00;102647.28;5048007;28;20065;-58
2022/04/15 05:40:36;;;;;;;15.32;8.07;;;;;;;7.27;100.00;102648.09;5048753;28;20537;-58
2022/04/15 05:43:05;;;;;;;16.25;9.02;;;;;;;7.30;100.00;102656.78;5048173;28;20045;-58
2022/04/15 05:45:34;;;;;;;13.70;8.52;;;;;;;7.25;100.00;102655.13;5048322;28;20037;-58
2022/04/15 05:48:02;;;;;;;12.55;7.47;;;;;;;7.24;100.00;102660.38;5046583;28;20053;-58
2022/04/15 05:50:30;;;;;;;16.08;8.13;;;;;;;7.19;100.00;102660.47;5048065;28;20076;-58
2022/04/15 05:52:58;;;;;;;14.55;8.25;;;;;;;7.23;100.00;102666.53;5048439;28;20047;-52
2022/04/15 05:55:27;;;;;;;16.15;8.45;;;;;;;7.23;100.00;102670.00;5047743;28;20048;-53
2022/04/15 05:57:55;;;;;;;13.93;7.35;;;;;;;7.19;100.00;102665.72;5047651;28;20064;-54
2022/04/15 06:00:24;;;;;;;15.85;7.55;;;;;;;7.30;100.00;102677.72;5048464;28;20076;-58
2022/04/15 06:02:52;;;;;;;12.32;6.88;;;;;;;7.32;100.00;102678.53;5044875;28;20053;-58
2022/04/15 06:05:28;;;;;;;15.20;6.90;;;;;;;7.36;100.00;102675.81;5048295;28;20045;-58
2022/04/15 06:07:56;;;;;;;13.63;7.85;;;;;;;7.40;100.00;102673.97;5047152;28;20155;-59
2022/04/15 06:10:24;;;;;;;13.60;6.18;;;;;;;7.51;100.00;102681.59;5048096;28;20080;-53
2022/04/15 06:13:08;;;;;;;12.90;6.60;;;;;;;7.54;100.00;102676.28;5046737;28;20045;-53
2022/04/15 06:15:41;;;;;;;13.65;6.95;;;;;;;7.55;100.00;102684.13;5047690;28;20041;-54
2022/04/15 06:18:09;;;;;;;14.50;6.22;;;;;;;7.69;100.00;102686.41;5046483;28;20052;-52
2022/04/15 06:20:41;;;;;;;13.73;6.20;;;;;;;7.78;100.00;102690.56;5047953;28;20056;-51
2022/04/15 06:23:09;;;;;;;12.30;6.35;;;;;;;7.86;100.00;102693.00;5047840;28;20443;-52
2022/04/15 06:25:37;;;;;;;11.00;5.70;;;;;;;8.03;100.00;102696.06;5047564;28;20033;-53
2022/04/15 06:28:08;;;;;;;9.32;5.32;;;;;;;8.07;100.00;102696.84;5047137;28;20045;-52
2022/04/15 06:30:38;;;;;;;10.65;5.03;;;;;;;8.14;100.00;102698.44;5047642;28;20102;-52
2022/04/15 06:33:08;;;;;;;11.52;5.03;;;;;;;8.19;100.00;102701.78;5046153;28;20057;-53
2022/04/15 06:35:39;;;;;;;11.48;5.22;;;;;;;8.32;100.00;102701.44;5047861;28;20431;-52
2022/04/15 06:38:07;;;;;;;10.07;5.53;;;;;;;8.41;100.00;102706.47;5045956;28;20091;-54
2022/04/15 06:40:38;;;;;;;8.55;4.15;;;;;;;8.49;100.00;102707.16;5047942;28;20037;-53
2022/04/15 06:43:08;;;;;;;7.60;4.00;;;;;;;8.53;100.00;102713.19;5047309;28;20056;-51
2022/04/15 06:45:38;;;;;;;7.97;4.10;;;;;;;8.57;100.00;102718.28;5046159;28;20048;-50
2022/04/15 06:48:07;;;;;;;6.15;3.63;;;;;;;8.55;100.00;102714.88;5045038;28;20060;-57
2022/04/15 06:50:35;;;;;;;8.30;3.70;;;;;;;8.70;100.00;102718.84;5047394;28;20111;-52
2022/04/15 06:53:03;;;;;;;7.68;4.00;;;;;;;8.77;100.00;102716.91;5047497;28;20055;-50
2022/04/15 06:55:31;;;;;;;6.43;3.05;;;;;;;8.84;99.75;102728.09;5047229;28;20087;-50
2022/04/15 06:58:00;;;;;;;7.32;3.63;;;;;;;8.83;99.50;102731.63;5046651;28;20408;-53
2022/04/15 07:00:28;;;;;;;8.50;3.47;;;;;;;8.95;99.37;102728.66;5047226;28;20057;-58
2022/04/15 07:02:58;;;;;;;7.00;3.35;;;;;;;9.10;98.39;102727.34;5045608;28;20061;-53
2022/04/15 07:05:26;;;;;;;5.82;3.17;;;;;;;9.22;96.91;102732.25;5046484;28;20059;-53
2022/04/15 07:07:54;;;;;;;6.22;3.40;;;;;;;9.33;95.76;102733.72;5048907;28;20128;-51
2022/04/15 07:10:23;;;;;;;8.65;3.40;;;;;;;9.38;96.98;102724.78;5051347;28;20048;-52
2022/04/15 07:12:51;;;;;;;6.05;3.45;;;;;;;9.50;96.52;102735.81;5050613;28;20049;-50
2022/04/15 07:15:20;;;;;;;6.63;3.22;;;;;;;9.60;96.22;102737.25;5050695;28;20045;-54
2022/04/15 07:17:48;;;;;;;7.53;2.85;;;;;;;9.66;95.33;102731.78;5048975;28;20049;-52
2022/04/15 07:20:18;;;;;;;6.40;2.88;;;;;;;9.71;94.50;102734.28;5050580;28;20462;-53
2022/04/15 07:22:46;;;;;;;6.07;2.75;;;;;;;9.65;93.51;102743.19;5050779;28;20542;-52
2022/04/15 07:25:20;;;;;;;5.53;2.30;;;;;;;9.55;94.32;102745.25;5050797;28;20053;-51
2022/04/15 07:27:48;;;;;;;5.38;2.53;;;;;;;9.41;95.21;102747.47;5048867;28;20059;-55
2022/04/15 07:30:17;;;;;;;5.22;2.20;;;;;;;9.43;95.01;102748.25;5050667;28;20060;-54
2022/04/15 07:32:45;;;;;;;7.57;2.75;;;;;;;9.48;95.31;102752.47;5049682;28;20464;-53
2022/04/15 07:35:13;;;;;;;4.43;2.03;;;;;;;9.51;94.94;102754.13;5050659;28;20069;-52
2022/04/15 07:37:43;;;;;;;4.22;2.45;;;;;;;9.40;95.32;102749.22;5050321;28;20053;-50
2022/04/15 07:40:12;;;;;;;4.47;2.58;;;;;;;9.40;95.26;102758.88;5050715;28;20095;-54
2022/04/15 07:42:41;;;;;;;6.07;2.50;;;;;;;9.26;96.46;102757.50;5049255;28;20377;-54
2022/04/15 07:45:09;;;;;;;7.05;2.63;;;;;;;9.32;96.26;102759.09;5050471;28;20045;-53
2022/04/15 07:47:37;;;;;;;5.18;2.50;;;;;;;9.26;96.38;102760.13;5048134;28;20057;-53
2022/04/15 07:50:21;;;;;;;6.05;2.20;;;;;;;9.34;96.56;102761.66;5050613;28;20171;-54
2022/04/15 07:52:51;;;;;;;;;;;;;;;9.40;96.99;102764.97;5050331;28;20040;-53
2022/04/15 07:55:19;;;;;;;6.50;2.50;;;;;;;9.41;97.12;102769.31;5050113;28;19925;-55
2022/04/15 07:57:48;;;;;;;5.55;2.38;;;;;;;9.40;96.74;102766.75;5049733;28;20124;-54
2022/04/15 08:00:16;;;;;;;4.55;2.33;;;;;;;9.37;97.18;102761.59;5050068;28;20057;-59
2022/04/15 08:02:44;;;;;;;6.15;3.47;;;;;;;9.38;96.86;102763.28;5047585;28;20056;-59
2022/04/15 08:05:14;;;;;;;6.10;2.90;;;;;;;9.36;96.84;102765.13;5050442;28;20037;-58
2022/04/15 08:07:42;;;;;;;7.38;2.42;;;;;;;9.48;97.34;102759.50;5049454;28;20060;-59
2022/04/15 08:10:11;;;;;;;7.38;3.00;;;;;;;9.45;97.80;102760.44;5049706;28;20095;-59
2022/04/15 08:12:40;;;;;;;4.90;2.67;;;;;;;9.46;97.08;102763.91;5044491;28;20040;-59
2022/04/15 08:15:08;;;;;;;7.10;3.05;;;;;;;9.44;97.50;102757.88;5049082;28;20474;-59
2022/04/15 08:17:37;;;;;;;5.95;2.60;;;;;;;9.50;97.69;102765.53;5047994;28;20055;-59
2022/04/15 08:20:06;;;;;;;8.45;3.13;;;;;;;9.48;97.27;102762.97;5048078;28;20064;-59
2022/04/15 08:22:36;;;;;;;6.10;2.97;;;;;;;9.62;97.00;102772.22;5049350;28;20135;-58
2022/04/15 08:25:06;;;;;;;6.63;3.55;;;;;;;9.68;96.46;102772.03;5049271;28;20049;-60
2022/04/15 08:27:35;;;;;;;6.30;2.83;;;;;;;9.54;97.71;102768.94;5048053;28;20045;-57
2022/04/15 08:30:04;;;;;;;7.18;3.17;;;;;;;9.52;97.75;102770.78;5048310;28;20052;-59
2022/04/15 08:32:34;;;;;;;8.02;3.47;;;;;;;9.61;97.80;102768.72;5048637;28;20091;-58
2022/04/15 08:35:11;;;;;;;7.18;3.30;;;;;;;9.65;97.57;102774.72;5055422;28;20068;-57
2022/04/15 08:37:40;;;;;;;8.18;3.67;;;;;;;9.70;96.94;102771.97;5058242;28;20040;-58
2022/04/15 08:40:11;;;;;;;7.15;3.30;;;;;;;9.63;96.78;102768.69;5058023;28;20052;-58
2022/04/15 08:42:40;;;;;;;9.88;3.95;;;;;;;9.50;97.62;102769.94;5061429;28;20052;-58
2022/04/15 08:45:09;;;;;;;8.18;3.90;;;;;;;9.71;97.00;102779.81;5055040;28;20732;-58
2022/04/15 08:47:38;;;;;;;11.02;4.10;;;;;;;9.68;97.21;102784.28;5055812;28;20049;-58
2022/04/15 08:50:07;;;;;;;8.30;4.05;;;;;;;9.74;97.14;102784.97;5056597;28;20544;-58
2022/04/15 08:52:35;;;;;;;8.57;4.45;;;;;;;9.73;95.62;102785.88;5059425;28;20067;-58
2022/04/15 08:55:03;;;;;;;8.32;4.20;;;;;;;9.73;96.38;102792.91;5054081;28;20122;-58
2022/04/15 08:57:32;;;;;;;9.57;4.88;;;;;;;9.79;96.51;102798.81;5047069;28;20049;-58
2022/04/15 09:00:02;;;;;;;7.72;4.28;;;;;;;9.75;96.18;102796.34;5054650;28;20083;-59
2022/04/15 09:02:32;;;;;;;10.38;4.45;;;;;;;9.85;95.57;102797.78;5048730;28;20128;-58
2022/04/15 09:05:01;;;;;;;7.60;4.25;;;;;;;9.72;94.95;102805.19;5046992;28;20048;-59
2022/04/15 09:07:29;;;;;;;7.35;4.00;;;;;;;9.70;96.19;102814.03;5048396;28;20053;-58
2022/04/15 09:10:05;;;;;;;9.52;4.03;;;;;;;9.66;96.62;102807.13;5048171;28;20077;-57
2022/04/15 09:12:35;;;;;;;7.78;3.95;;;;;;;9.72;94.93;102804.31;5048031;28;20056;-58
2022/04/15 09:15:13;;;;;;;11.27;3.95;;;;;;;9.72;94.57;102802.56;5048275;28;20071;-58
2022/04/15 09:17:49;;;;;;;8.50;4.55;;;;;;;9.81;93.98;102814.53;5046547;28;20384;-59
2022/04/15 09:20:19;;;;;;;8.23;4.82;;;;;;;9.82;93.75;102811.03;5048390;28;20133;-58
2022/04/15 09:22:47;;;;;;;8.05;4.22;;;;;;;9.85;94.28;102818.81;5047302;28;20041;-59
2022/04/15 09:25:15;;;;;;;8.55;4.70;;;;;;;9.95;93.10;102812.38;5048063;28;20063;-59
2022/04/15 09:27:43;;;;;;;9.80;4.18;;;;;;;10.03;92.30;102827.03;5047289;28;20094;-58
2022/04/15 09:30:13;;;;;;;8.18;4.47;;;;;;;9.89;93.02;102823.06;5047078;28;20488;-58
2022/04/15 09:32:41;;;;;;;7.82;4.35;;;;;;;9.90;93.73;102822.16;5046860;28;20868;-59
2022/04/15 09:35:10;;;;;;;9.45;4.43;;;;;;;9.89;93.91;102819.56;5046393;28;20128;-58
2022/04/15 09:37:40;;;;;;;9.55;4.75;;;;;;;9.86;93.78;102823.16;5047656;28;20060;-58
2022/04/15 09:40:12;;;;;;;10.32;4.57;;;;;;;9.89;94.20;102828.31;5047845;28;20053;-57
2022/04/15 09:42:45;;;;;;;10.55;4.70;;;;;;;9.98;93.81;102833.28;5047046;28;20055;-58
2022/04/15 09:45:17;;;;;;;8.77;5.15;;;;;;;10.03;93.35;102840.16;5047249;28;20576;-57
2022/04/15 09:47:51;;;;;;;11.23;6.05;;;;;;;9.96;93.59;102831.63;5045650;28;20040;-53
2022/04/15 09:50:23;;;;;;;10.23;5.97;;;;;;;9.96;94.04;102837.72;5047252;28;20052;-55
2022/04/15 09:52:52;;;;;;;12.02;6.15;;;;;;;10.03;93.61;102841.03;5046624;28;20044;-57
2022/04/15 09:55:23;;;;;;;10.65;5.35;;;;;;;10.02;93.93;102828.81;5047002;28;20148;-53
2022/04/15 09:57:52;;;;;;;11.35;5.70;;;;;;;9.98;94.06;102835.91;5046447;28;20052;-54
2022/04/15 10:00:29;;;;;;;11.07;5.22;;;;;;;10.13;93.40;102841.63;5047464;28;20492;-51
2022/04/15 10:02:59;;;;;;;11.85;5.15;;;;;;;10.03;93.83;102842.81;5045330;28;20086;-53
2022/04/15 10:05:27;;;;;;;10.48;5.45;;;;;;;10.04;94.09;102844.53;5047454;28;20083;-51
2022/04/15 10:07:56;;;;;;;9.65;5.35;;;;;;;10.21;94.11;102843.97;5045337;28;20556;-53
2022/04/15 10:10:25;;;;;;;9.23;5.28;;;;;;;10.04;93.70;102853.25;5047507;28;20053;-57
2022/04/15 10:12:54;;;;;;;10.95;5.45;;;;;;;10.11;92.78;102846.91;5046515;28;20393;-57
2022/04/15 10:15:23;;;;;;;9.20;5.38;;;;;;;10.18;92.89;102847.56;5047104;28;20072;-58
2022/04/15 10:17:53;;;;;;;9.13;5.57;;;;;;;10.09;92.83;102853.09;5045262;28;20064;-58
2022/04/15 10:20:22;;;;;;;9.23;5.25;;;;;;;10.26;92.40;102840.28;5046874;28;20084;-58
2022/04/15 10:22:51;;;;;;;9.98;5.20;;;;;;;10.16;92.78;102844.16;5046466;28;20077;-57
2022/04/15 10:25:19;;;;;;;9.85;4.97;;;;;;;10.18;92.90;102844.94;5047110;28;20053;-58
2022/04/15 10:27:47;;;;;;;9.38;5.57;;;;;;;10.19;91.99;102849.28;5046579;28;20032;-57
2022/04/15 10:30:18;;;;;;;10.15;5.65;;;;;;;10.19;93.32;102841.41;5047437;28;20068;-58
2022/04/15 10:32:51;;;;;;;11.48;6.10;;;;;;;10.26;93.01;102845.56;5045464;28;20396;-58
2022/04/15 10:35:23;;;;;;;9.18;5.13;;;;;;;10.37;92.96;102844.41;5047003;28;20063;-58
2022/04/15 10:37:56;;;;;;;11.05;6.20;;;;;;;10.31;92.53;102848.06;5046394;28;20053;-52
2022/04/15 10:40:26;;;;;;;9.75;5.90;;;;;;;10.24;92.59;102847.38;5047151;28;20075;-50
2022/04/15 10:42:54;;;;;;;11.80;5.72;;;;;;;10.19;92.19;102844.03;5049630;28;20049;-51
2022/04/15 10:45:27;;;;;;;10.82;6.55;;;;;;;10.17;91.75;102845.88;5051107;28;20102;-53
2022/04/15 10:47:57;;;;;;;10.63;6.00;;;;;;;10.30;91.70;102843.69;5048852;28;20056;-55
2022/04/15 10:50:29;;;;;;;10.65;5.45;;;;;;;10.27;91.88;102847.28;5051112;28;20056;-53
2022/04/15 10:53:15;;;;;;;11.63;6.15;;;;;;;10.46;91.15;102839.69;5050472;28;20385;-55
2022/04/15 10:55:46;;;;;;;10.50;5.47;;;;;;;10.46;91.81;102838.84;5049793;28;20572;-54
2022/04/15 10:58:16;;;;;;;9.98;5.60;;;;;;;10.59;90.70;102845.41;5050842;28;20101;-55
2022/04/15 11:03:31;;;;;;;10.35;5.80;;;;;;;10.69;88.16;102850.34;5049028;28;20059;-55
2022/04/15 11:06:04;;;;;;;10.85;5.97;;;;;;;10.72;89.23;102845.00;5049436;28;20049;-56
2022/04/15 11:08:52;;;;;;;11.98;5.93;;;;;;;10.67;87.62;102842.50;5050165;28;20087;-56
2022/04/15 11:11:33;;;;;;;10.30;6.28;;;;;;;10.65;88.69;102844.34;5050597;28;20049;-57
2022/04/15 11:14:03;;;;;;;10.88;5.82;;;;;;;10.54;89.36;102844.72;5050222;28;20890;-55
2022/04/15 11:16:43;;;;;;;10.50;5.55;;;;;;;10.56;89.87;102850.75;5050287;28;20045;-55
2022/04/15 11:19:12;;;;;;;9.00;5.40;;;;;;;10.72;88.65;102847.63;5048771;28;20064;-59
2022/04/15 11:21:42;;;;;;;11.38;5.80;;;;;;;10.72;89.42;102845.84;5049370;28;20099;-60
2022/04/15 11:24:11;;;;;;;9.25;5.75;;;;;;;10.86;89.17;102850.63;5050351;28;20056;-58
2022/04/15 11:26:42;;;;;;;9.15;5.70;;;;;;;10.85;87.43;102848.06;5049805;28;20037;-60
2022/04/15 11:29:12;;;;;;;9.52;5.32;;;;;;;10.75;87.96;102844.91;5048873;28;20059;-59
2022/04/15 11:31:41;;;;;;;9.18;5.30;;;;;;;10.64;87.31;102848.72;5049663;28;20060;-59
2022/04/15 11:34:11;;;;;;;9.52;5.22;;;;;;;10.75;86.26;102853.63;5048352;28;20044;-59